Time;durP1;ratioP1;P1;durP2;ratioP2;P2;SDS_P1;SDS_P2;PMS_P1;PMS_P2;Temp;Humidity;BMP_temperature;BMP_pressure;BME280_temperature;BME280_humidity;BME280_pressure;Samples;Min_cycle;Max_cycle;Signal;HPM_P1;HPM_P2
2024/01/03 00:00:27;;;;;;;10.18;2.38;;;20.30;56.90;;;;;;5129429;27;20545;-50
2024/01/03 00:02:54;;;;;;;16.60;3.00;;;20.30;57.20;;;;;;5127210;27;20075;-50
2024/01/03 00:05:25;;;;;;;7.68;3.20;;;20.30;57.50;;;;;;5127748;27;20075;-50
2024/01/03 00:07:52;;;;;;;14.90;3.35;;;20.20;57.90;;;;;;5128983;27;20558;-49
2024/01/03 00:10:41;;;;;;;6.43;2.83;;;20.20;58.40;;;;;;5129604;27;20429;-52
2024/01/03 00:13:29;;;;;;;10.95;3.25;;;20.10;58.50;;;;;;5126414;27;20487;-51
2024/01/03 00:16:20;;;;;;;14.45;2.80;;;20.00;58.90;;;;;;5128563;27;20155;-48
2024/01/03 00:18:59;;;;;;;12.55;2.70;;;19.90;59.40;;;;;;5128596;27;20135;-53
2024/01/03 00:21:28;;;;;;;17.55;2.60;;;19.70;59.90;;;;;;5128098;27;20075;-54
2024/01/03 00:24:03;;;;;;;18.15;2.80;;;19.60;60.30;;;;;;5127768;27;20072;-49
2024/01/03 00:26:30;;;;;;;14.13;3.05;;;19.50;60.90;;;;;;5126817;27;20082;-49
2024/01/03 00:28:58;;;;;;;17.60;2.70;;;19.40;61.50;;;;;;5129443;27;20107;-52
2024/01/03 00:31:38;;;;;;;16.20;2.78;;;19.40;61.50;;;;;;5124976;27;20076;-52
2024/01/03 00:34:16;;;;;;;15.80;2.70;;;19.20;60.80;;;;;;5126295;27;20087;-49
2024/01/03 00:36:43;;;;;;;12.00;2.50;;;19.10;60.70;;;;;;5127335;27;20063;-53
2024/01/03 00:39:11;;;;;;;10.57;2.17;;;19.10;60.90;;;;;;5128653;27;21069;-51
2024/01/03 00:41:38;;;;;;;16.05;3.10;;;19.00;61.10;;;;;;5128206;27;20101;-50
2024/01/03 00:44:04;;;;;;;13.05;2.85;;;18.80;61.70;;;;;;5127931;27;20085;-53
2024/01/03 00:46:31;;;;;;;27.33;3.28;;;18.70;62.10;;;;;;5128018;27;20079;-51
2024/01/03 00:49:00;;;;;;;10.73;3.33;;;18.60;62.60;;;;;;5128712;27;20099;-51
2024/01/03 00:51:27;;;;;;;16.42;3.72;;;18.50;62.90;;;;;;5127929;27;20103;-53
2024/01/03 00:53:54;;;;;;;27.75;5.55;;;18.40;64.20;;;;;;5126579;27;20084;-49
2024/01/03 00:56:20;;;;;;;34.00;7.47;;;18.20;65.30;;;;;;5127554;27;20153;-50
2024/01/03 00:58:47;;;;;;;33.15;8.60;;;18.10;65.90;;;;;;5127901;27;20078;-50
2024/01/03 01:01:13;;;;;;;36.42;9.18;;;18.00;66.50;;;;;;5124643;27;20158;-51
2024/01/03 01:03:40;;;;;;;39.00;9.45;;;17.90;67.70;;;;;;5127113;27;20072;-52
2024/01/03 01:06:07;;;;;;;37.90;8.55;;;17.80;68.50;;;;;;5125050;27;20162;-54
2024/01/03 01:08:34;;;;;;;33.58;7.03;;;17.70;68.90;;;;;;5121612;27;20107;-51
2024/01/03 01:11:00;;;;;;;24.80;5.53;;;17.60;69.50;;;;;;5126001;27;20076;-50
2024/01/03 01:13:27;;;;;;;32.60;6.10;;;17.50;70.00;;;;;;5126576;27;20138;-52
2024/01/03 01:15:53;;;;;;;34.00;9.65;;;17.40;70.80;;;;;;5126549;27;20079;-50
2024/01/03 01:18:20;;;;;;;35.92;10.48;;;17.30;71.20;;;;;;5123089;27;20148;-53
2024/01/03 01:20:46;;;;;;;31.25;11.45;;;17.20;71.50;;;;;;5124748;27;20072;-55
2024/01/03 01:23:13;;;;;;;54.42;9.68;;;17.10;71.60;;;;;;5126212;27;20078;-55
2024/01/03 01:25:39;;;;;;;42.15;9.00;;;17.00;72.50;;;;;;5127146;27;20091;-51
2024/01/03 01:28:06;;;;;;;52.40;9.05;;;16.90;73.10;;;;;;5125090;27;20079;-61
2024/01/03 01:30:33;;;;;;;51.40;9.25;;;16.90;73.60;;;;;;5108006;27;20130;-62
2024/01/03 01:32:59;;;;;;;66.60;10.57;;;16.80;74.10;;;;;;5127130;27;20075;-62
2024/01/03 01:35:26;;;;;;;69.95;11.25;;;16.70;74.80;;;;;;5125490;27;20529;-61
2024/01/03 01:37:52;;;;;;;59.45;10.68;;;16.60;75.50;;;;;;5127546;27;20079;-60
2024/01/03 01:40:19;;;;;;;62.78;11.80;;;16.60;76.10;;;;;;5126992;27;20076;-61
2024/01/03 01:42:45;;;;;;;62.45;13.13;;;16.50;76.10;;;;;;5127070;27;20155;-60
2024/01/03 01:45:12;;;;;;;58.67;12.43;;;16.40;76.80;;;;;;5126468;27;20068;-60
2024/01/03 01:47:41;;;;;;;51.20;10.77;;;16.30;77.20;;;;;;5127338;27;20210;-60
2024/01/03 01:50:08;;;;;;;42.08;10.38;;;16.20;77.00;;;;;;5124750;28;20530;-60
2024/01/03 01:52:36;;;;;;;51.40;9.82;;;16.20;76.50;;;;;;5126397;28;20112;-57
2024/01/03 01:55:02;;;;;;;57.95;10.35;;;16.10;76.00;;;;;;5125879;28;20110;-60
2024/01/03 01:57:31;;;;;;;45.28;10.35;;;16.10;76.60;;;;;;5127977;28;20068;-60
2024/01/03 01:59:58;;;;;;;65.60;11.82;;;16.10;76.70;;;;;;5124824;28;20159;-61
2024/01/03 02:02:24;;;;;;;45.38;10.50;;;16.00;76.80;;;;;;5127023;28;20076;-60
2024/01/03 02:04:52;;;;;;;66.93;12.32;;;16.00;77.20;;;;;;5124640;27;20145;-62
2024/01/03 02:07:19;;;;;;;69.88;12.93;;;15.90;77.80;;;;;;5130262;27;20091;-61
2024/01/03 02:09:47;;;;;;;55.30;13.15;;;15.90;78.30;;;;;;5109995;27;20448;-61
2024/01/03 02:12:13;;;;;;;76.03;13.82;;;15.90;78.70;;;;;;5131203;27;20090;-60
2024/01/03 02:14:40;;;;;;;98.28;14.38;;;15.80;79.00;;;;;;5129393;27;20072;-61
2024/01/03 02:17:07;;;;;;;86.90;14.65;;;15.80;79.10;;;;;;5130497;27;21015;-60
2024/01/03 02:19:33;;;;;;;81.28;14.75;;;15.80;78.90;;;;;;5129073;27;20076;-60
2024/01/03 02:22:00;;;;;;;76.70;14.98;;;15.70;79.10;;;;;;5113064;27;20071;-61
2024/01/03 02:24:26;;;;;;;98.15;15.93;;;15.60;79.20;;;;;;5130275;27;20080;-61
2024/01/03 02:26:53;;;;;;;95.55;16.55;;;15.60;79.60;;;;;;5129873;27;20529;-61
2024/01/03 02:29:19;;;;;;;97.32;20.48;;;15.60;80.20;;;;;;5129232;27;20071;-60
2024/01/03 02:31:46;;;;;;;86.55;21.00;;;15.60;80.70;;;;;;5128860;27;20235;-60
2024/01/03 02:34:12;;;;;;;77.45;21.50;;;15.50;80.70;;;;;;5128570;27;20084;-62
2024/01/03 02:36:39;;;;;;;94.38;22.40;;;15.50;81.30;;;;;;5130438;27;20076;-62
2024/01/03 02:39:06;;;;;;;99.63;24.17;;;15.50;81.50;;;;;;5130826;27;20084;-59
2024/01/03 02:41:33;;;;;;;108.18;27.90;;;15.50;81.50;;;;;;5130576;27;20193;-60
2024/01/03 02:43:59;;;;;;;120.15;36.65;;;15.50;81.30;;;;;;5128624;27;20428;-60
2024/01/03 02:46:26;;;;;;;126.90;35.75;;;15.50;80.80;;;;;;5129810;27;20064;-60
2024/01/03 02:48:52;;;;;;;126.78;39.53;;;15.50;80.50;;;;;;5129507;27;20107;-62
2024/01/03 02:51:20;;;;;;;164.27;40.63;;;15.50;80.40;;;;;;5130872;27;20117;-60
2024/01/03 02:53:47;;;;;;;132.07;36.80;;;15.60;79.40;;;;;;5129375;27;20075;-63
2024/01/03 02:56:14;;;;;;;153.50;34.75;;;15.60;78.60;;;;;;5128174;27;20082;-60
2024/01/03 02:58:41;;;;;;;134.65;32.58;;;15.60;77.70;;;;;;5112460;27;20445;-60
2024/01/03 03:01:07;;;;;;;172.55;33.33;;;15.70;77.40;;;;;;5130151;27;20101;-61
2024/01/03 03:03:34;;;;;;;161.55;33.17;;;15.70;77.20;;;;;;5128403;27;20072;-60
2024/01/03 03:06:02;;;;;;;136.30;29.80;;;15.70;77.20;;;;;;5111037;27;20129;-60
2024/01/03 03:08:28;;;;;;;153.57;30.55;;;15.70;77.10;;;;;;5126596;27;20494;-59
2024/01/03 03:10:55;;;;;;;169.57;30.95;;;15.70;76.90;;;;;;5128576;27;20099;-62
2024/01/03 03:13:23;;;;;;;171.73;30.85;;;15.70;77.10;;;;;;5130140;27;20064;-60
2024/01/03 03:15:49;;;;;;;145.38;29.65;;;15.60;77.30;;;;;;5127481;27;20091;-60
2024/01/03 03:18:16;;;;;;;144.50;30.65;;;15.60;77.30;;;;;;5129862;27;20102;-60
2024/01/03 03:20:42;;;;;;;152.18;29.42;;;15.50;77.90;;;;;;5128828;27;20080;-60
2024/01/03 03:23:09;;;;;;;138.23;27.88;;;15.50;78.50;;;;;;5109178;27;20100;-60
2024/01/03 03:25:35;;;;;;;129.95;26.48;;;15.40;78.50;;;;;;5127889;27;20492;-59
2024/01/03 03:28:07;;;;;;;149.05;25.30;;;15.40;78.50;;;;;;5128383;27;20557;-60
2024/01/03 03:30:36;;;;;;;130.35;24.38;;;15.40;78.20;;;;;;5109554;27;20181;-60
2024/01/03 03:33:02;;;;;;;114.22;24.15;;;15.40;78.40;;;;;;5111371;27;20079;-60
2024/01/03 03:35:28;;;;;;;128.15;27.65;;;15.30;78.40;;;;;;5128946;27;20068;-62
2024/01/03 03:37:56;;;;;;;116.07;28.55;;;15.30;78.70;;;;;;5128860;27;20072;-61
2024/01/03 03:40:23;;;;;;;121.03;28.75;;;15.30;79.10;;;;;;5129854;27;20076;-61
2024/01/03 03:42:50;;;;;;;126.60;28.27;;;15.20;79.30;;;;;;5128045;27;20557;-61
2024/01/03 03:45:16;;;;;;;103.10;25.63;;;15.20;79.80;;;;;;5129001;27;20136;-61
2024/01/03 03:47:43;;;;;;;124.65;27.05;;;15.10;80.50;;;;;;5129176;27;20095;-61
2024/01/03 03:50:09;;;;;;;108.07;25.42;;;15.10;80.80;;;;;;5130805;27;20075;-61
2024/01/03 03:52:39;;;;;;;111.85;26.80;;;15.00;81.70;;;;;;5117641;27;20107;-62
2024/01/03 03:55:06;;;;;;;115.07;27.33;;;14.90;81.90;;;;;;5132718;27;20549;-61
2024/01/03 03:57:32;;;;;;;117.80;27.40;;;14.80;82.40;;;;;;5129595;27;20397;-61
2024/01/03 03:59:59;;;;;;;94.45;25.48;;;14.80;82.90;;;;;;5110294;27;20071;-61
2024/01/03 04:02:25;;;;;;;109.82;24.15;;;14.80;83.40;;;;;;5128872;27;20072;-61
2024/01/03 04:04:52;;;;;;;89.00;22.98;;;14.80;84.20;;;;;;5128393;27;20087;-61
2024/01/03 04:07:19;;;;;;;87.13;22.33;;;14.70;84.30;;;;;;5128489;27;20108;-61
2024/01/03 04:09:45;;;;;;;85.18;21.73;;;14.80;84.40;;;;;;5108374;27;20082;-63
2024/01/03 04:12:12;;;;;;;90.22;20.35;;;14.80;84.80;;;;;;5129097;27;20158;-61
2024/01/03 04:14:38;;;;;;;83.97;21.10;;;14.80;84.90;;;;;;5128292;27;20152;-61
2024/01/03 04:17:05;;;;;;;85.00;20.80;;;14.80;84.80;;;;;;5129753;27;20071;-58
2024/01/03 04:19:31;;;;;;;86.72;22.17;;;14.90;85.60;;;;;;5108687;27;20075;-62
2024/01/03 04:21:58;;;;;;;81.88;21.05;;;14.90;85.50;;;;;;5128345;27;20091;-59
2024/01/03 04:24:25;;;;;;;60.35;20.08;;;14.90;85.60;;;;;;5127400;27;20129;-59
2024/01/03 04:26:55;;;;;;;61.80;19.60;;;14.90;85.20;;;;;;5107550;27;20078;-60
2024/01/03 04:29:21;;;;;;;69.68;18.40;;;15.00;84.70;;;;;;5109620;27;20072;-59
2024/01/03 04:31:48;;;;;;;69.95;18.08;;;15.10;84.50;;;;;;5127160;27;20443;-61
2024/01/03 04:34:14;;;;;;;63.85;16.92;;;15.10;84.60;;;;;;5128341;27;20076;-59
2024/01/03 04:36:41;;;;;;;84.47;17.42;;;15.10;84.30;;;;;;5128660;27;20067;-60
2024/01/03 04:39:07;;;;;;;54.88;15.90;;;15.10;84.70;;;;;;5126903;27;20067;-60
2024/01/03 04:41:33;;;;;;;50.33;15.55;;;15.10;84.40;;;;;;5128608;27;20155;-62
2024/01/03 04:44:00;;;;;;;47.47;14.68;;;15.10;84.60;;;;;;5127517;27;20132;-61
2024/01/03 04:46:26;;;;;;;59.53;15.02;;;15.00;84.50;;;;;;5126537;27;20111;-60
2024/01/03 04:48:53;;;;;;;57.10;14.77;;;15.00;84.60;;;;;;5127781;27;20137;-59
2024/01/03 04:51:19;;;;;;;56.13;14.38;;;14.90;84.70;;;;;;5125801;27;20113;-60
2024/01/03 04:53:46;;;;;;;47.30;14.63;;;14.80;84.40;;;;;;5128458;27;20483;-57
2024/01/03 04:56:12;;;;;;;46.03;14.38;;;14.70;85.50;;;;;;5128542;27;20078;-59
2024/01/03 04:58:39;;;;;;;54.30;16.42;;;14.60;86.20;;;;;;5126510;27;21680;-59
2024/01/03 05:01:05;;;;;;;58.20;16.98;;;14.40;86.50;;;;;;5127067;27;20127;-60
2024/01/03 05:03:32;;;;;;;52.53;19.23;;;14.30;86.70;;;;;;5127970;27;20525;-59
2024/01/03 05:05:58;;;;;;;61.00;18.95;;;14.30;87.20;;;;;;5108896;27;20095;-59
2024/01/03 05:08:24;;;;;;;57.60;21.27;;;14.20;88.10;;;;;;5127049;27;20549;-61
2024/01/03 05:10:51;;;;;;;76.85;23.98;;;14.10;88.80;;;;;;5127997;27;20542;-58
2024/01/03 05:13:17;;;;;;;61.10;24.13;;;14.10;89.30;;;;;;5127517;27;20552;-59
2024/01/03 05:15:44;;;;;;;95.57;27.10;;;14.00;89.90;;;;;;5127798;27;20079;-60
2024/01/03 05:18:10;;;;;;;66.93;25.25;;;13.90;90.00;;;;;;5126959;27;20067;-59
2024/01/03 05:20:37;;;;;;;73.15;25.42;;;13.80;90.20;;;;;;5126547;27;20152;-62
2024/01/03 05:23:03;;;;;;;77.65;26.15;;;13.70;90.40;;;;;;5127564;27;21346;-59
2024/01/03 05:25:30;;;;;;;73.53;25.92;;;13.70;90.50;;;;;;5126769;27;20120;-59
2024/01/03 05:27:56;;;;;;;76.78;27.27;;;13.70;90.70;;;;;;5126247;27;20671;-59
2024/01/03 05:30:23;;;;;;;68.18;29.13;;;13.60;91.00;;;;;;5124000;27;20087;-58
2024/01/03 05:32:49;;;;;;;66.35;27.10;;;13.60;91.20;;;;;;5125641;27;20071;-61
2024/01/03 05:35:16;;;;;;;71.25;28.35;;;13.50;91.70;;;;;;5128277;27;20076;-59
2024/01/03 05:37:42;;;;;;;65.80;27.50;;;13.50;91.70;;;;;;5127232;27;20517;-59
2024/01/03 05:40:09;;;;;;;78.93;27.38;;;13.50;91.70;;;;;;5124690;27;20612;-58
2024/01/03 05:42:36;;;;;;;75.60;29.65;;;13.40;92.00;;;;;;5126907;27;20071;-59
2024/01/03 05:45:02;;;;;;;71.70;30.08;;;13.40;92.00;;;;;;5126852;27;20095;-58
2024/01/03 05:47:29;;;;;;;101.53;35.85;;;13.40;92.20;;;;;;5107884;27;20100;-59
2024/01/03 05:49:55;;;;;;;78.40;34.53;;;13.30;92.40;;;;;;5127185;27;20076;-59
2024/01/03 05:52:22;;;;;;;83.60;32.90;;;13.20;92.60;;;;;;5126651;27;20588;-58
2024/01/03 05:54:48;;;;;;;80.78;29.35;;;13.20;92.80;;;;;;5127489;28;20076;-60
2024/01/03 05:57:15;;;;;;;98.65;32.05;;;13.20;93.00;;;;;;5126871;28;20080;-53
2024/01/03 05:59:41;;;;;;;70.68;32.20;;;13.20;93.00;;;;;;5125722;28;20121;-60
2024/01/03 06:02:08;;;;;;;93.43;31.55;;;13.20;93.30;;;;;;5127177;28;20078;-56
2024/01/03 06:04:34;;;;;;;77.35;30.17;;;13.30;93.40;;;;;;5124737;28;20067;-58
2024/01/03 06:07:01;;;;;;;79.07;28.83;;;13.10;93.40;;;;;;5127070;28;20129;-56
2024/01/03 06:09:27;;;;;;;80.05;27.52;;;13.20;93.60;;;;;;5126679;28;20148;-62
2024/01/03 06:11:54;;;;;;;73.50;28.10;;;13.10;93.60;;;;;;5128462;28;20491;-56
2024/01/03 06:14:20;;;;;;;89.50;29.17;;;13.10;93.70;;;;;;5127619;28;20339;-59
2024/01/03 06:16:47;;;;;;;74.25;27.73;;;13.00;93.80;;;;;;5126221;28;20071;-58
2024/01/03 06:19:13;;;;;;;77.07;28.65;;;13.00;94.00;;;;;;5124979;28;20083;-56
2024/01/03 06:21:39;;;;;;;;;;;13.00;94.10;;;;;;5120483;28;20063;-58
2024/01/03 06:24:06;;;;;;;89.43;29.63;;;12.90;94.30;;;;;;5126475;28;20408;-58
2024/01/03 06:26:32;;;;;;;76.07;27.27;;;12.90;94.50;;;;;;5108758;28;20426;-59
2024/01/03 06:28:59;;;;;;;83.60;26.52;;;12.90;94.60;;;;;;5125830;28;20103;-61
2024/01/03 06:31:25;;;;;;;79.53;27.38;;;12.90;94.80;;;;;;5127805;28;20086;-58
2024/01/03 06:33:52;;;;;;;82.07;27.20;;;12.80;94.90;;;;;;5125510;28;20398;-59
2024/01/03 06:36:19;;;;;;;85.57;25.63;;;12.70;94.90;;;;;;5125016;28;20076;-58
2024/01/03 06:38:46;;;;;;;72.65;25.77;;;12.70;95.40;;;;;;5123863;28;20530;-60
2024/01/03 06:41:12;;;;;;;75.90;25.73;;;12.70;95.40;;;;;;5127535;28;20107;-59
2024/01/03 06:43:39;;;;;;;70.28;24.35;;;12.70;95.40;;;;;;5126000;28;20154;-58
2024/01/03 06:46:05;;;;;;;77.38;29.98;;;12.60;95.50;;;;;;5109197;28;20095;-57
2024/01/03 06:48:32;;;;;;;71.80;23.58;;;12.70;95.40;;;;;;5126981;28;20114;-58
2024/01/03 06:51:02;;;;;;;73.97;24.02;;;12.60;95.30;;;;;;5126022;27;20079;-59
2024/01/03 06:53:29;;;;;;;72.22;23.55;;;12.60;95.50;;;;;;5088355;28;20100;-56
2024/01/03 06:55:56;;;;;;;73.65;22.15;;;12.70;95.50;;;;;;5090128;28;20163;-58
2024/01/03 06:58:23;;;;;;;65.47;22.20;;;12.70;95.60;;;;;;5087912;28;20096;-61
2024/01/03 07:00:50;;;;;;;51.90;20.10;;;12.70;95.50;;;;;;5089428;28;20077;-59
2024/01/03 07:03:16;;;;;;;62.33;21.05;;;12.60;95.90;;;;;;5088585;28;20072;-59
2024/01/03 07:05:44;;;;;;;74.18;21.10;;;12.60;96.20;;;;;;5088661;28;20107;-58
2024/01/03 07:08:11;;;;;;;61.30;21.15;;;12.50;96.10;;;;;;5087895;28;20120;-59
2024/01/03 07:10:37;;;;;;;59.00;20.00;;;12.40;96.20;;;;;;5090325;28;20121;-58
2024/01/03 07:13:04;;;;;;;58.72;20.50;;;12.40;96.30;;;;;;5088303;28;20539;-61
2024/01/03 07:15:31;;;;;;;67.25;21.60;;;12.30;96.60;;;;;;5087994;28;20080;-59
2024/01/03 07:17:59;;;;;;;76.32;20.75;;;12.30;96.60;;;;;;5088290;28;20098;-59
2024/01/03 07:20:26;;;;;;;57.00;20.58;;;12.40;96.70;;;;;;5089405;28;20454;-59
2024/01/03 07:22:52;;;;;;;74.25;22.80;;;12.40;96.90;;;;;;5086166;28;20157;-58
2024/01/03 07:25:19;;;;;;;75.60;24.60;;;12.30;96.80;;;;;;5089313;28;20668;-59
2024/01/03 07:27:47;;;;;;;84.80;24.77;;;12.30;96.90;;;;;;5088171;28;20111;-57
2024/01/03 07:30:13;;;;;;;92.43;26.80;;;12.20;97.10;;;;;;5089250;28;20079;-60
2024/01/03 07:32:40;;;;;;;78.22;28.13;;;12.20;97.20;;;;;;5088688;28;20106;-56
2024/01/03 07:35:06;;;;;;;;;;;12.10;97.60;;;;;;5089210;28;20072;-57
2024/01/03 07:37:33;;;;;;;69.18;26.73;;;12.00;97.90;;;;;;5087866;28;19974;-59
2024/01/03 07:40:00;;;;;;;75.88;27.33;;;12.00;97.90;;;;;;5087539;28;20122;-60
2024/01/03 07:42:26;;;;;;;67.45;25.50;;;12.00;98.20;;;;;;5089136;28;20077;-57
2024/01/03 07:44:53;;;;;;;80.18;28.15;;;11.90;98.10;;;;;;5087243;28;20076;-59
2024/01/03 07:47:19;;;;;;;74.65;27.38;;;12.00;98.20;;;;;;5088029;28;20101;-59
2024/01/03 07:49:46;;;;;;;80.40;31.70;;;11.90;98.00;;;;;;5089051;28;20079;-59
2024/01/03 07:52:13;;;;;;;70.57;30.13;;;11.90;98.20;;;;;;5105665;27;20188;-59
2024/01/03 07:54:39;;;;;;;92.65;32.88;;;12.00;98.30;;;;;;5130154;27;20075;-58
2024/01/03 07:57:06;;;;;;;79.22;31.08;;;12.00;98.30;;;;;;5124797;27;21042;-59
2024/01/03 07:59:33;;;;;;;74.00;33.17;;;12.00;98.50;;;;;;5128471;27;20518;-59
2024/01/03 08:01:59;;;;;;;89.10;34.20;;;11.90;98.80;;;;;;5128546;27;20072;-58
2024/01/03 08:04:26;;;;;;;84.65;34.15;;;11.90;98.90;;;;;;5129095;27;20878;-59
2024/01/03 08:06:52;;;;;;;81.97;32.53;;;11.90;98.90;;;;;;5127451;27;20099;-59
2024/01/03 08:09:19;;;;;;;82.35;33.10;;;11.90;98.80;;;;;;5110959;27;20448;-59
2024/01/03 08:11:45;;;;;;;89.40;35.20;;;11.80;98.70;;;;;;5129691;27;20072;-58
2024/01/03 08:14:11;;;;;;;;;;;11.70;98.90;;;;;;5130121;27;20545;-59
2024/01/03 08:16:37;;;;;;;89.47;35.97;;;11.70;99.10;;;;;;5109738;27;19970;-58
2024/01/03 08:19:03;;;;;;;;;;;11.70;99.50;;;;;;5127508;27;20530;-61
2024/01/03 08:21:30;;;;;;;98.63;36.35;;;11.70;99.20;;;;;;5127128;27;20046;-58
2024/01/03 08:23:56;;;;;;;92.47;36.08;;;11.70;99.50;;;;;;5128298;27;20072;-59
2024/01/03 08:26:23;;;;;;;99.63;37.95;;;11.70;99.50;;;;;;5129277;27;20068;-60
2024/01/03 08:28:49;;;;;;;97.43;37.17;;;11.70;99.70;;;;;;5129826;27;20190;-58
2024/01/03 08:31:17;;;;;;;84.68;36.28;;;11.70;99.60;;;;;;5129001;27;20075;-60
2024/01/03 08:33:48;;;;;;;81.38;35.50;;;11.70;99.70;;;;;;5128014;27;20071;-59
2024/01/03 08:36:15;;;;;;;88.88;35.00;;;11.70;99.70;;;;;;5127461;27;20071;-58
2024/01/03 08:38:42;;;;;;;81.68;32.22;;;11.60;99.90;;;;;;5126609;27;20140;-56
2024/01/03 08:41:19;;;;;;;87.60;32.53;;;11.70;99.90;;;;;;5129363;27;20102;-53
2024/01/03 08:43:46;;;;;;;87.20;33.63;;;11.70;99.90;;;;;;5128330;27;20170;-53
2024/01/03 08:46:13;;;;;;;85.53;34.25;;;11.70;99.90;;;;;;5126151;27;20072;-58
2024/01/03 08:48:43;;;;;;;80.28;32.67;;;11.70;99.90;;;;;;5128328;27;20095;-52
2024/01/03 08:51:17;;;;;;;78.18;32.58;;;11.70;99.90;;;;;;5121374;27;20087;-54
2024/01/03 08:53:43;;;;;;;83.85;32.30;;;11.70;99.90;;;;;;5127204;27;20133;-54
2024/01/03 08:56:17;;;;;;;74.32;30.50;;;11.80;99.90;;;;;;5108909;27;20554;-53
2024/01/03 08:58:46;;;;;;;91.38;33.35;;;11.80;99.90;;;;;;5128832;27;20072;-58
2024/01/03 09:01:17;;;;;;;82.00;31.58;;;11.80;99.90;;;;;;5127974;27;20068;-52
2024/01/03 09:03:44;;;;;;;68.70;31.23;;;11.70;99.90;;;;;;5128692;27;20440;-56
2024/01/03 09:06:14;;;;;;;82.50;32.90;;;11.70;99.90;;;;;;5126830;27;20072;-55
2024/01/03 09:08:40;;;;;;;82.10;32.28;;;11.70;99.90;;;;;;5126736;27;20127;-55
2024/01/03 09:11:13;;;;;;;73.63;31.38;;;11.70;99.90;;;;;;5128101;27;20128;-59
2024/01/03 09:13:41;;;;;;;75.28;29.70;;;11.70;99.90;;;;;;5129070;27;20451;-52
2024/01/03 09:16:10;;;;;;;75.90;30.35;;;11.60;99.80;;;;;;5128272;27;20103;-54
2024/01/03 09:18:37;;;;;;;77.97;29.80;;;11.60;99.70;;;;;;5125419;27;20083;-53
2024/01/03 09:21:04;;;;;;;77.53;30.58;;;11.60;99.70;;;;;;5127899;27;20495;-55
2024/01/03 09:23:31;;;;;;;69.47;28.02;;;11.60;99.80;;;;;;5124967;27;20067;-55
2024/01/03 09:25:59;;;;;;;62.83;27.17;;;11.50;99.70;;;;;;5126594;27;20100;-56
2024/01/03 09:28:26;;;;;;;61.08;26.35;;;11.50;99.80;;;;;;5126916;27;20100;-58
2024/01/03 09:30:53;;;;;;;81.07;30.33;;;11.50;99.70;;;;;;5128699;27;20436;-56
2024/01/03 09:33:19;;;;;;;59.65;28.05;;;11.50;99.50;;;;;;5125351;27;20076;-51
2024/01/03 09:35:46;;;;;;;55.80;26.65;;;11.50;99.30;;;;;;5109142;27;20139;-53
2024/01/03 09:38:14;;;;;;;70.63;29.25;;;11.50;99.50;;;;;;5126520;27;20100;-55
2024/01/03 09:40:44;;;;;;;61.83;27.40;;;11.50;99.80;;;;;;5128219;27;20078;-52
2024/01/03 09:43:12;;;;;;;68.47;31.80;;;11.50;99.50;;;;;;5127266;27;20076;-52
2024/01/03 09:45:39;;;;;;;72.03;34.88;;;11.50;99.50;;;;;;5126277;27;20068;-54
2024/01/03 09:48:08;;;;;;;62.88;31.77;;;11.30;99.60;;;;;;5124579;27;20112;-54
2024/01/03 09:50:35;;;;;;;70.28;33.58;;;11.30;99.60;;;;;;5126745;27;20463;-54
2024/01/03 09:53:03;;;;;;;67.60;34.05;;;11.30;99.80;;;;;;5129269;27;20112;-55
2024/01/03 09:55:30;;;;;;;64.10;33.40;;;11.30;99.90;;;;;;5091484;28;20099;-56
2024/01/03 09:57:57;;;;;;;67.57;33.63;;;11.20;99.90;;;;;;5127027;28;20095;-58
2024/01/03 10:00:29;;;;;;;68.00;31.45;;;11.20;99.90;;;;;;5127383;28;20179;-54
2024/01/03 10:03:11;;;;;;;66.93;33.47;;;11.20;99.90;;;;;;5109486;28;20378;-53
2024/01/03 10:05:37;;;;;;;70.40;32.60;;;11.10;99.90;;;;;;5110487;28;20080;-57
2024/01/03 10:08:18;;;;;;;76.15;31.23;;;11.10;99.90;;;;;;5126340;28;20182;-56
2024/01/03 10:10:45;;;;;;;68.57;32.08;;;11.10;99.90;;;;;;5127691;28;20138;-57
2024/01/03 10:13:27;;;;;;;66.75;28.52;;;11.10;99.90;;;;;;5126192;28;20523;-60
2024/01/03 10:15:54;;;;;;;58.20;27.80;;;11.10;99.90;;;;;;5126206;28;20297;-57
2024/01/03 10:18:22;;;;;;;56.13;27.98;;;11.10;99.90;;;;;;5125757;28;20121;-55
2024/01/03 10:20:49;;;;;;;73.18;33.53;;;11.10;99.90;;;;;;5125331;28;20075;-54
2024/01/03 10:23:21;;;;;;;62.45;31.90;;;11.10;99.90;;;;;;5122188;28;20594;-59
2024/01/03 10:25:47;;;;;;;54.53;30.48;;;11.00;99.90;;;;;;5125120;27;20105;-58
2024/01/03 10:28:17;;;;;;;56.05;29.17;;;11.00;99.90;;;;;;5130311;27;20206;-56
2024/01/03 10:30:52;;;;;;;51.75;24.80;;;10.90;99.90;;;;;;5108806;27;20072;-56
2024/01/03 10:33:19;;;;;;;50.97;22.77;;;10.90;99.90;;;;;;5113085;27;20139;-55
2024/01/03 10:35:46;;;;;;;59.42;22.45;;;10.90;99.90;;;;;;5129434;27;20072;-56
2024/01/03 10:38:15;;;;;;;56.42;23.63;;;10.90;99.90;;;;;;5131399;27;20086;-54
2024/01/03 10:40:42;;;;;;;48.78;21.92;;;10.90;99.90;;;;;;5130392;27;20505;-57
2024/01/03 10:43:11;;;;;;;50.80;22.05;;;10.80;99.90;;;;;;5131069;27;20078;-55
2024/01/03 10:45:38;;;;;;;52.53;22.30;;;10.90;99.90;;;;;;5128628;27;20072;-56
2024/01/03 10:48:05;;;;;;;41.53;22.92;;;10.80;99.90;;;;;;5130754;27;20549;-59
2024/01/03 10:50:34;;;;;;;42.40;24.42;;;10.90;99.90;;;;;;5129359;27;20079;-58
2024/01/03 10:53:08;;;;;;;42.05;23.13;;;10.80;99.90;;;;;;5129748;27;20164;-55
2024/01/03 10:55:37;;;;;;;45.28;22.90;;;10.80;99.90;;;;;;5126679;27;20079;-59
2024/01/03 10:58:18;;;;;;;50.72;23.92;;;10.70;99.90;;;;;;5110874;27;20548;-59
2024/01/03 11:01:14;;;;;;;50.65;24.85;;;10.70;99.90;;;;;;5127020;27;20080;-54
2024/01/03 11:03:59;;;;;;;55.50;25.83;;;10.50;99.90;;;;;;5108029;27;20091;-55
2024/01/03 11:06:36;;;;;;;54.90;28.02;;;10.40;99.90;;;;;;5130246;27;20067;-56
2024/01/03 11:09:03;;;;;;;53.55;28.75;;;10.50;99.90;;;;;;5129327;27;20099;-57
2024/01/03 11:11:37;;;;;;;54.00;31.50;;;10.40;99.90;;;;;;5130151;27;20437;-54
2024/01/03 11:14:19;;;;;;;68.88;31.90;;;10.40;99.90;;;;;;5128655;27;20067;-55
2024/01/03 11:16:46;;;;;;;62.80;31.02;;;10.40;99.90;;;;;;5130466;27;20144;-56
2024/01/03 11:19:13;;;;;;;64.43;32.53;;;10.20;99.90;;;;;;5128568;27;20494;-55
2024/01/03 11:21:40;;;;;;;69.30;33.28;;;10.30;99.90;;;;;;5130001;27;20116;-54
2024/01/03 11:24:19;;;;;;;69.10;34.80;;;10.20;99.90;;;;;;5129822;27;20615;-56
2024/01/03 11:26:55;;;;;;;77.10;35.30;;;10.20;99.90;;;;;;5128210;27;20083;-55
2024/01/03 11:32:23;;;;;;;66.95;34.35;;;10.00;99.90;;;;;;5127689;27;20080;-54
2024/01/03 11:34:50;;;;;;;65.70;35.72;;;9.90;99.90;;;;;;5126116;27;20064;-56
2024/01/03 11:37:19;;;;;;;74.68;37.92;;;9.90;99.90;;;;;;5109976;27;20078;-52
2024/01/03 11:39:50;;;;;;;84.25;36.90;;;10.00;99.90;;;;;;5109118;27;20129;-53
2024/01/03 11:42:25;;;;;;;71.63;37.47;;;10.00;99.90;;;;;;5129697;27;20099;-56
2024/01/03 11:45:12;;;;;;;72.38;36.65;;;10.00;99.90;;;;;;5128485;27;20079;-57
2024/01/03 11:47:39;;;;;;;72.70;38.20;;;10.10;99.90;;;;;;5126692;27;20104;-55
2024/01/03 11:50:08;;;;;;;79.10;40.25;;;10.00;99.90;;;;;;5129123;27;20068;-54
2024/01/03 11:52:36;;;;;;;71.32;41.45;;;10.10;99.90;;;;;;5128902;27;20108;-56
2024/01/03 11:55:10;;;;;;;74.35;43.08;;;10.00;99.90;;;;;;5110228;27;20076;-55
2024/01/03 11:57:41;;;;;;;77.88;43.97;;;10.00;99.90;;;;;;5108566;27;20526;-57
2024/01/03 12:00:12;;;;;;;73.97;43.70;;;10.00;99.90;;;;;;5126576;27;20586;-56
2024/01/03 12:02:53;;;;;;;88.47;46.60;;;10.00;99.90;;;;;;5124387;27;20105;-57
2024/01/03 12:05:24;;;;;;;76.18;49.70;;;9.90;99.90;;;;;;5127399;27;20079;-58
2024/01/03 12:07:51;;;;;;;82.70;47.88;;;9.90;99.90;;;;;;5129275;27;20134;-53
2024/01/03 12:10:18;;;;;;;89.50;49.40;;;9.80;99.90;;;;;;5127071;27;20078;-57
2024/01/03 12:12:46;;;;;;;92.00;52.55;;;9.80;99.90;;;;;;5110112;27;20083;-54
2024/01/03 12:15:25;;;;;;;89.72;53.00;;;9.80;99.90;;;;;;5109204;27;20570;-59
2024/01/03 12:17:52;;;;;;;100.32;55.70;;;9.70;99.90;;;;;;5128442;27;20204;-56
2024/01/03 12:20:20;;;;;;;99.65;58.05;;;9.80;99.90;;;;;;5123638;27;20072;-56
2024/01/03 12:22:47;;;;;;;115.55;64.53;;;9.70;99.90;;;;;;5109978;27;20072;-55
2024/01/03 12:25:24;;;;;;;106.18;63.97;;;9.70;99.90;;;;;;5126338;27;20216;-53
2024/01/03 12:27:56;;;;;;;113.35;66.30;;;9.70;99.90;;;;;;5126513;27;20099;-56
2024/01/03 12:30:22;;;;;;;118.20;71.10;;;9.70;99.90;;;;;;5125634;27;20114;-55
2024/01/03 12:32:51;;;;;;;119.00;73.10;;;9.80;99.90;;;;;;5128951;27;20068;-59
2024/01/03 12:35:17;;;;;;;120.63;70.30;;;9.80;99.90;;;;;;5125409;27;20095;-56